createdAt,value
2022-10-23T00:01:39.561Z,25.60
2022-10-23T00:04:10.842Z,28.30
2022-10-23T00:06:37.712Z,26.70
2022-10-23T00:09:06.105Z,29.90
2022-10-23T00:11:34.414Z,27.10
2022-10-23T00:14:02.816Z,25.50
2022-10-23T00:16:30.466Z,27.50
2022-10-23T00:18:58.025Z,28.10
2022-10-23T00:21:25.547Z,29.20
2022-10-23T00:23:52.685Z,28.30
2022-10-23T00:26:19.927Z,28.10
2022-10-23T00:28:50.218Z,28.40
2022-10-23T00:31:18.171Z,28.90
2022-10-23T00:33:45.083Z,29.40
2022-10-23T00:36:13.992Z,27.00
2022-10-23T00:38:45.530Z,26.90
2022-10-23T00:41:20.969Z,26.40
2022-10-23T00:44:05.541Z,28.50
2022-10-23T00:46:33.634Z,28.90
2022-10-23T00:49:01.382Z,27.90
2022-10-23T00:51:33.622Z,28.20
2022-10-23T00:54:22.997Z,28.40
2022-10-23T00:56:49.974Z,27.10
2022-10-23T00:59:16.842Z,25.30
2022-10-23T01:01:43.823Z,27.00
2022-10-23T01:04:11.481Z,27.80
2022-10-23T01:06:43.518Z,27.90
2022-10-23T01:09:25.924Z,27.70
2022-10-23T01:12:01.099Z,27.70
2022-10-23T01:14:43.008Z,27.60
2022-10-23T01:17:15.647Z,27.00
2022-10-23T01:19:59.668Z,26.90
2022-10-23T01:22:51.681Z,24.40
2022-10-23T01:25:29.663Z,22.60
2022-10-23T01:28:03.022Z,18.70
2022-10-23T01:30:33.737Z,21.60
2022-10-23T01:33:13.156Z,20.90
2022-10-23T01:35:52.763Z,22.80
2022-10-23T01:38:29.103Z,21.10
2022-10-23T01:41:07.431Z,23.10
2022-10-23T01:43:44.211Z,23.50
2022-10-23T01:46:15.361Z,23.50
2022-10-23T01:48:48.780Z,24.50
2022-10-23T01:51:17.593Z,21.80
2022-10-23T01:53:48.551Z,22.30
2022-10-23T01:56:21.862Z,22.30
2022-10-23T01:58:52.618Z,21.30
2022-10-23T02:01:24.502Z,20.80
2022-10-23T02:03:53.774Z,19.50
2022-10-23T02:06:20.535Z,20.40
2022-10-23T02:08:47.593Z,19.20
2022-10-23T02:11:18.618Z,20.20
2022-10-23T02:13:53.684Z,17.40
2022-10-23T02:16:41.436Z,20.30
2022-10-23T02:19:21.655Z,17.70
2022-10-23T02:22:03.750Z,18.10
2022-10-23T02:24:41.604Z,18.50
2022-10-23T02:27:14.342Z,16.90
2022-10-23T02:29:47.074Z,18.40
2022-10-23T02:32:17.925Z,18.10
2022-10-23T02:34:48.092Z,17.10
2022-10-23T02:37:15.956Z,19.70
2022-10-23T02:39:42.912Z,18.20
2022-10-23T02:42:29.361Z,19.70
2022-10-23T02:45:09.270Z,19.70
2022-10-23T02:47:51.661Z,20.70
2022-10-23T02:50:33.210Z,18.90
2022-10-23T02:53:28.129Z,19.30
2022-10-23T02:56:13.561Z,18.80
2022-10-23T02:59:03.370Z,19.30
2022-10-23T03:01:43.714Z,21.80
2022-10-23T03:04:12.557Z,20.50
2022-10-23T03:06:39.570Z,21.30
2022-10-23T03:09:09.262Z,20.00
2022-10-23T03:11:36.558Z,24.90
2022-10-23T03:14:03.358Z,22.90
2022-10-23T03:16:31.476Z,24.40
2022-10-23T03:18:58.263Z,21.90
2022-10-23T03:21:25.286Z,23.90
2022-10-23T03:23:53.021Z,23.60
2022-10-23T03:26:26.411Z,21.90
2022-10-23T03:28:53.583Z,24.70
2022-10-23T03:31:21.384Z,25.80
2022-10-23T03:33:49.635Z,24.70
2022-10-23T03:36:16.603Z,25.70
2022-10-23T03:38:44.202Z,18.60
2022-10-23T03:41:10.976Z,24.50
2022-10-23T03:43:37.723Z,22.50
2022-10-23T03:46:09.693Z,22.00
2022-10-23T03:48:38.455Z,23.20
2022-10-23T03:51:06.209Z,22.90
2022-10-23T03:53:32.947Z,19.70
2022-10-23T03:56:01.731Z,21.60
2022-10-23T03:58:28.702Z,22.00
2022-10-23T04:00:55.920Z,20.40
2022-10-23T04:03:23.319Z,19.50
2022-10-23T04:05:52.232Z,20.70
2022-10-23T04:08:21.487Z,21.20
2022-10-23T04:10:51.151Z,19.80
2022-10-23T04:13:20.870Z,20.00
2022-10-23T04:15:50.242Z,20.10
2022-10-23T04:18:17.589Z,19.70
2022-10-23T04:20:47.091Z,18.50
2022-10-23T04:23:13.926Z,18.30
2022-10-23T04:25:42.015Z,16.90
2022-10-23T04:28:08.914Z,17.60
2022-10-23T04:30:38.761Z,17.60
2022-10-23T04:33:05.902Z,17.20
2022-10-23T04:35:33.553Z,16.50
2022-10-23T04:38:00.274Z,18.20
2022-10-23T04:40:26.991Z,17.70
2022-10-23T04:42:54.676Z,17.00
2022-10-23T04:45:21.726Z,17.80
2022-10-23T04:47:48.505Z,12.90
2022-10-23T04:50:15.777Z,16.40
2022-10-23T04:52:58.289Z,17.20
2022-10-23T04:55:40.063Z,15.20
2022-10-23T04:58:12.026Z,15.10
2022-10-23T05:00:38.741Z,14.70
2022-10-23T05:03:05.613Z,16.90
2022-10-23T05:05:39.331Z,12.90
2022-10-23T05:08:24.772Z,15.10
2022-10-23T05:11:06.803Z,16.00
2022-10-23T05:13:38.574Z,12.00
2022-10-23T05:16:05.673Z,15.50
2022-10-23T05:18:39.205Z,14.30
2022-10-23T05:21:13.531Z,14.90
2022-10-23T05:23:42.950Z,14.90
2022-10-23T05:26:09.794Z,15.00
2022-10-23T05:28:37.938Z,16.20
2022-10-23T05:31:06.159Z,16.30
2022-10-23T05:33:36.607Z,15.10
2022-10-23T05:36:03.829Z,16.80
2022-10-23T05:38:34.845Z,15.00
2022-10-23T05:41:06.494Z,17.70
2022-10-23T05:43:33.242Z,18.10
2022-10-23T05:46:09.411Z,16.60
2022-10-23T05:48:52.499Z,15.30
2022-10-23T05:51:37.007Z,17.90
2022-10-23T05:54:21.786Z,17.70
2022-10-23T05:56:58.523Z,17.90
2022-10-23T05:59:32.476Z,18.00
2022-10-23T06:02:12.759Z,14.90
2022-10-23T06:04:47.821Z,19.10
2022-10-23T06:07:33.716Z,19.00
2022-10-23T06:10:05.538Z,17.60
2022-10-23T06:12:33.943Z,19.60
2022-10-23T06:15:00.998Z,19.90
2022-10-23T06:17:42.789Z,21.60
2022-10-23T06:20:10.206Z,21.80
2022-10-23T06:22:39.166Z,20.30
2022-10-23T06:25:18.772Z,21.10
2022-10-23T06:27:45.848Z,22.60
2022-10-23T06:30:13.404Z,18.90
2022-10-23T06:32:40.501Z,21.80
2022-10-23T06:35:11.506Z,20.90
2022-10-23T06:37:38.981Z,20.10
2022-10-23T06:40:10.731Z,21.00
2022-10-23T06:42:50.888Z,20.60
2022-10-23T06:45:34.209Z,22.20
2022-10-23T06:48:21.023Z,23.80
2022-10-23T06:50:47.701Z,20.30
2022-10-23T06:53:20.095Z,16.90
2022-10-23T06:55:55.338Z,22.80
2022-10-23T06:58:22.784Z,22.00
2022-10-23T07:01:04.405Z,24.30
2022-10-23T07:03:31.984Z,22.70
2022-10-23T07:06:02.041Z,21.40
2022-10-23T07:08:29.570Z,22.90
2022-10-23T07:10:56.936Z,24.50
2022-10-23T07:13:25.244Z,20.40
2022-10-23T07:15:58.243Z,18.70
2022-10-23T07:18:25.964Z,16.50
2022-10-23T07:21:08.659Z,17.50
2022-10-23T07:23:37.177Z,19.70
2022-10-23T07:26:06.389Z,18.20
2022-10-23T07:28:34.482Z,14.70
2022-10-23T07:31:02.235Z,16.10
2022-10-23T07:33:50.338Z,16.20
2022-10-23T07:36:19.515Z,17.20
2022-10-23T07:38:46.832Z,13.90
2022-10-23T07:41:13.658Z,13.60
2022-10-23T07:43:40.814Z,13.30
2022-10-23T07:46:09.956Z,13.90
2022-10-23T07:48:40.068Z,15.70
2022-10-23T07:51:13.419Z,15.50
2022-10-23T07:53:44.749Z,14.70
2022-10-23T07:56:26.369Z,16.40
2022-10-23T07:59:13.630Z,13.10
2022-10-23T08:01:43.442Z,15.20
2022-10-23T08:04:11.203Z,17.50
2022-10-23T08:09:11.261Z,18.30
2022-10-23T08:11:38.857Z,16.30
2022-10-23T08:14:08.256Z,15.30
2022-10-23T08:16:38.339Z,19.50
2022-10-23T08:19:07.869Z,19.60
2022-10-23T08:21:36.197Z,19.40
2022-10-23T08:24:03.431Z,19.20
2022-10-23T08:26:31.052Z,20.30
2022-10-23T08:28:59.636Z,16.30
2022-10-23T08:31:27.261Z,17.90
2022-10-23T08:34:09.475Z,16.50
2022-10-23T08:36:39.435Z,17.20
2022-10-23T08:39:06.841Z,16.00
2022-10-23T08:41:37.762Z,13.60
2022-10-23T08:44:24.991Z,16.40
2022-10-23T08:47:02.038Z,16.10
2022-10-23T08:49:51.820Z,15.70
2022-10-23T08:52:30.243Z,14.30
2022-10-23T08:55:12.649Z,14.50
2022-10-23T08:57:47.861Z,14.80
2022-10-23T09:00:16.867Z,12.90
2022-10-23T09:02:47.876Z,14.00
2022-10-23T09:05:19.493Z,12.60
2022-10-23T09:08:17.544Z,14.80
2022-10-23T09:11:15.669Z,15.40
2022-10-23T09:13:49.459Z,13.00
2022-10-23T09:16:44.697Z,14.20
2022-10-23T09:19:16.175Z,11.80
2022-10-23T09:21:47.354Z,11.90
2022-10-23T09:24:18.019Z,13.20
2022-10-23T09:26:48.450Z,13.40
2022-10-23T09:29:36.226Z,13.10
2022-10-23T09:32:06.847Z,14.30
2022-10-23T09:34:35.178Z,12.80
2022-10-23T09:37:17.745Z,11.40
2022-10-23T09:39:47.000Z,10.80
2022-10-23T09:42:22.419Z,10.90
2022-10-23T09:44:52.258Z,11.20
2022-10-23T09:47:21.329Z,9.30
2022-10-23T09:49:51.604Z,8.60
2022-10-23T09:52:18.332Z,11.10
2022-10-23T09:54:48.613Z,12.10
2022-10-23T09:57:32.020Z,12.00
2022-10-23T10:00:04.172Z,13.60
2022-10-23T10:02:38.975Z,13.40
2022-10-23T10:05:22.370Z,12.00
2022-10-23T10:08:12.241Z,12.20
2022-10-23T10:10:45.395Z,11.30
2022-10-23T10:13:38.460Z,11.10
2022-10-23T10:16:20.787Z,12.80
2022-10-23T10:19:17.341Z,11.10
2022-10-23T10:22:09.057Z,10.60
2022-10-23T10:24:52.291Z,12.40
2022-10-23T10:27:46.411Z,12.60
2022-10-23T10:30:18.464Z,13.10
2022-10-23T10:32:52.563Z,12.10
2022-10-23T10:35:23.398Z,12.10
2022-10-23T10:37:50.618Z,10.80
2022-10-23T10:40:35.444Z,12.00
2022-10-23T10:43:24.172Z,11.30
2022-10-23T10:46:06.106Z,8.30
2022-10-23T10:48:48.623Z,8.80
2022-10-23T10:51:50.719Z,9.20
2022-10-23T10:54:48.834Z,11.30
2022-10-23T10:57:34.105Z,11.80
2022-10-23T11:00:07.221Z,10.40
2022-10-23T11:02:45.065Z,11.00
2022-10-23T11:05:19.209Z,11.50
2022-10-23T11:08:10.116Z,12.30
2022-10-23T11:10:41.183Z,13.30
2022-10-23T11:13:24.827Z,11.90
2022-10-23T11:15:54.989Z,11.10
2022-10-23T11:18:28.582Z,10.90
2022-10-23T11:23:42.583Z,8.80
2022-10-23T11:26:10.407Z,7.80
2022-10-23T11:28:37.121Z,6.70
2022-10-23T11:31:21.790Z,6.40
2022-10-23T11:34:04.216Z,5.70
2022-10-23T11:36:55.030Z,5.90
2022-10-23T11:39:26.881Z,4.80
2022-10-23T11:42:12.641Z,5.00
2022-10-23T11:44:43.543Z,5.40
2022-10-23T11:47:32.025Z,4.10
2022-10-23T11:50:09.345Z,4.60
2022-10-23T11:52:45.615Z,5.00
2022-10-23T11:55:21.190Z,4.30
2022-10-23T11:58:14.585Z,4.10
2022-10-23T12:00:54.327Z,4.20
2022-10-23T12:03:29.071Z,4.60
2022-10-23T12:06:01.940Z,4.20
2022-10-23T12:08:32.690Z,4.70
2022-10-23T12:11:02.141Z,4.30
2022-10-23T12:13:32.768Z,5.00
2022-10-23T12:16:00.964Z,4.90
2022-10-23T12:18:28.452Z,4.40
2022-10-23T12:20:58.660Z,4.30
2022-10-23T12:23:51.073Z,4.40
2022-10-23T12:26:22.945Z,4.50
2022-10-23T12:29:17.364Z,4.80
2022-10-23T12:32:08.229Z,4.00
2022-10-23T12:35:08.100Z,4.10
2022-10-23T12:37:58.138Z,4.10
2022-10-23T12:40:29.951Z,4.20
2022-10-23T12:42:59.526Z,3.30
2022-10-23T12:45:30.007Z,3.90
2022-10-23T12:47:56.756Z,3.50
2022-10-23T12:50:25.045Z,4.30
2022-10-23T12:52:54.038Z,3.80
2022-10-23T12:55:21.940Z,3.80
2022-10-23T12:57:48.727Z,3.30
2022-10-23T13:00:19.934Z,3.80
2022-10-23T13:02:47.005Z,3.40
2022-10-23T13:05:20.109Z,3.40
2022-10-23T13:07:48.721Z,3.20
2022-10-23T13:10:20.744Z,3.70
2022-10-23T13:13:05.020Z,3.90
2022-10-23T13:15:40.251Z,3.80
2022-10-23T13:18:08.553Z,4.00
2022-10-23T13:20:41.131Z,3.30
2022-10-23T13:23:07.906Z,3.80
2022-10-23T13:25:36.796Z,3.50
2022-10-23T13:28:15.011Z,3.40
2022-10-23T13:30:46.550Z,3.80
2022-10-23T13:33:15.672Z,3.80
2022-10-23T13:35:42.439Z,4.00
2022-10-23T13:38:11.948Z,4.60
2022-10-23T13:40:38.711Z,4.80
2022-10-23T13:43:14.563Z,4.60
2022-10-23T13:45:41.605Z,4.80
2022-10-23T13:48:13.892Z,4.70
2022-10-23T13:50:40.848Z,4.90
2022-10-23T13:53:12.563Z,4.50
2022-10-23T13:55:42.885Z,4.70
2022-10-23T13:58:10.599Z,4.30
2022-10-23T14:00:38.936Z,4.40
2022-10-23T14:03:05.782Z,4.70
2022-10-23T14:05:32.493Z,4.40
2022-10-23T14:07:59.323Z,4.60
2022-10-23T14:10:27.752Z,4.30
2022-10-23T14:12:55.114Z,4.40
2022-10-23T14:15:22.360Z,4.50
2022-10-23T14:17:49.207Z,4.20
2022-10-23T14:20:19.006Z,4.40
2022-10-23T14:22:46.518Z,4.80
2022-10-23T14:25:13.502Z,4.70
2022-10-23T14:27:40.342Z,4.50
2022-10-23T14:30:08.130Z,3.90
2022-10-23T14:32:34.975Z,3.80
2022-10-23T14:35:03.938Z,3.80
2022-10-23T14:37:31.537Z,3.40
2022-10-23T14:39:58.988Z,3.20
2022-10-23T14:42:30.528Z,3.20
2022-10-23T14:45:02.844Z,3.00
2022-10-23T14:47:31.701Z,3.40
2022-10-23T14:49:58.408Z,3.20
2022-10-23T14:52:25.205Z,3.10
2022-10-23T14:54:53.604Z,3.50
2022-10-23T14:57:22.163Z,3.50
2022-10-23T14:59:49.767Z,3.40
2022-10-23T15:02:17.607Z,3.00
2022-10-23T15:04:44.540Z,3.70
2022-10-23T15:07:11.496Z,3.60
2022-10-23T15:09:39.735Z,3.30
2022-10-23T15:12:07.879Z,3.20
2022-10-23T15:14:35.215Z,2.90
2022-10-23T15:17:03.026Z,3.80
2022-10-23T15:19:30.080Z,3.50
2022-10-23T15:21:57.077Z,3.90
2022-10-23T15:24:23.966Z,3.90
2022-10-23T15:26:51.811Z,3.70
2022-10-23T15:29:19.716Z,3.80
2022-10-23T15:31:53.266Z,4.50
2022-10-23T15:34:23.789Z,4.20
2022-10-23T15:36:52.608Z,3.50
2022-10-23T15:39:22.867Z,3.30
2022-10-23T15:41:53.580Z,3.70
2022-10-23T15:44:22.360Z,3.80
2022-10-23T15:46:49.888Z,3.60
2022-10-23T15:49:17.579Z,3.20
2022-10-23T15:51:44.402Z,3.50
2022-10-23T15:54:16.647Z,3.50
2022-10-23T15:56:44.728Z,3.60
2022-10-23T15:59:11.554Z,3.70
2022-10-23T16:01:38.574Z,3.90
2022-10-23T16:04:05.840Z,4.00
2022-10-23T16:06:32.915Z,3.80
2022-10-23T16:08:59.706Z,5.10
2022-10-23T16:11:29.823Z,3.40
2022-10-23T16:13:58.473Z,4.30
2022-10-23T16:16:27.053Z,3.00
2022-10-23T16:18:53.927Z,4.30
2022-10-23T16:21:24.828Z,7.50
2022-10-23T16:23:53.268Z,24.50
2022-10-23T16:26:21.070Z,148.80
2022-10-23T16:28:47.962Z,19.00
2022-10-23T16:31:20.057Z,8.00
2022-10-23T16:33:48.424Z,6.40
2022-10-23T16:36:15.750Z,4.60
2022-10-23T16:38:57.999Z,4.60
2022-10-23T16:41:45.246Z,4.70
2022-10-23T16:44:18.398Z,20.30
2022-10-23T16:47:00.718Z,8.20
2022-10-23T16:49:29.799Z,9.20
2022-10-23T16:51:56.647Z,10.40
2022-10-23T16:54:23.376Z,12.00
2022-10-23T16:56:50.254Z,19.60
2022-10-23T16:59:17.059Z,12.00
2022-10-23T17:01:44.017Z,14.10
2022-10-23T17:04:10.858Z,11.30
2022-10-23T17:06:37.669Z,11.30
2022-10-23T17:09:06.355Z,12.60
2022-10-23T17:11:38.408Z,13.70
2022-10-23T17:14:07.858Z,13.50
2022-10-23T17:16:40.269Z,13.30
2022-10-23T17:19:20.851Z,14.10
2022-10-23T17:21:57.952Z,14.20
2022-10-23T17:24:25.075Z,13.00
2022-10-23T17:26:52.012Z,14.50
2022-10-23T17:29:23.318Z,14.70
2022-10-23T17:31:53.435Z,14.60
2022-10-23T17:34:22.620Z,16.60
2022-10-23T17:36:52.890Z,19.10
2022-10-23T17:39:23.431Z,20.40
2022-10-23T17:41:50.764Z,68.80
2022-10-23T17:44:20.516Z,289.10
2022-10-23T17:46:53.262Z,257.00
2022-10-23T17:49:21.057Z,25.80
2022-10-23T17:51:57.734Z,21.10
2022-10-23T17:54:27.091Z,30.50
2022-10-23T17:56:53.974Z,28.90
2022-10-23T17:59:22.089Z,29.20
2022-10-23T18:01:49.609Z,23.90
2022-10-23T18:04:19.124Z,26.70
2022-10-23T18:06:49.461Z,22.60
2022-10-23T18:09:17.030Z,24.40
2022-10-23T18:11:48.118Z,23.50
2022-10-23T18:14:17.161Z,20.30
2022-10-23T18:16:45.841Z,19.80
2022-10-23T18:19:14.035Z,22.30
2022-10-23T18:21:41.563Z,18.90
2022-10-23T18:24:08.688Z,18.00
2022-10-23T18:26:37.738Z,28.40
2022-10-23T18:29:07.863Z,21.80
2022-10-23T18:31:37.466Z,59.70
2022-10-23T18:34:14.681Z,62.10
2022-10-23T18:36:42.092Z,51.20
2022-10-23T18:39:14.403Z,26.20
2022-10-23T18:41:45.122Z,40.10
2022-10-23T18:44:17.286Z,22.20
2022-10-23T18:46:45.070Z,21.20
2022-10-23T18:49:11.918Z,29.70
2022-10-23T18:51:39.822Z,31.90
2022-10-23T18:54:25.141Z,28.50
2022-10-23T18:56:52.056Z,22.20
2022-10-23T18:59:20.929Z,21.00
2022-10-23T19:01:48.693Z,20.90
2022-10-23T19:04:16.136Z,19.90
2022-10-23T19:06:43.005Z,18.60
2022-10-23T19:09:13.757Z,18.00
2022-10-23T19:11:42.112Z,21.00
2022-10-23T19:14:09.436Z,19.20
2022-10-23T19:16:43.779Z,21.50
2022-10-23T19:19:13.571Z,20.20
2022-10-23T19:21:41.741Z,20.30
2022-10-23T19:24:19.736Z,20.00
2022-10-23T19:26:49.965Z,20.50
2022-10-23T19:29:34.919Z,22.40
2022-10-23T19:32:07.192Z,23.20
2022-10-23T19:34:34.286Z,24.20
2022-10-23T19:37:01.459Z,23.80
2022-10-23T19:39:28.439Z,22.10
2022-10-23T19:41:55.357Z,28.30
2022-10-23T19:44:22.265Z,29.10
2022-10-23T19:46:49.168Z,27.00
2022-10-23T19:49:33.384Z,25.80
2022-10-23T19:52:00.142Z,30.70
2022-10-23T19:54:27.153Z,31.40
2022-10-23T19:56:53.867Z,30.20
2022-10-23T19:59:20.704Z,31.20
2022-10-23T20:01:49.034Z,41.80
2022-10-23T20:04:18.391Z,41.30
2022-10-23T20:06:46.180Z,41.20
2022-10-23T20:09:13.188Z,41.10
2022-10-23T20:11:40.855Z,40.90
2022-10-23T20:14:08.340Z,40.00
2022-10-23T20:16:37.500Z,39.60
2022-10-23T20:19:07.305Z,41.40
2022-10-23T20:21:36.236Z,38.10
2022-10-23T20:24:02.989Z,44.60
2022-10-23T20:26:30.590Z,38.40
2022-10-23T20:28:57.705Z,39.60
2022-10-23T20:31:26.215Z,37.50
2022-10-23T20:33:53.400Z,35.80
2022-10-23T20:36:37.941Z,36.00
2022-10-23T20:39:10.101Z,28.90
2022-10-23T20:41:37.578Z,26.20
2022-10-23T20:44:06.882Z,26.60
2022-10-23T20:46:34.038Z,27.90
2022-10-23T20:49:00.849Z,30.00
2022-10-23T20:51:27.836Z,26.50
2022-10-23T20:53:54.944Z,30.20
2022-10-23T20:56:30.173Z,29.10
2022-10-23T20:59:00.110Z,28.00
2022-10-23T21:01:28.329Z,22.10
2022-10-23T21:03:57.224Z,24.70
2022-10-23T21:06:25.479Z,32.30
2022-10-23T21:09:02.438Z,32.40
2022-10-23T21:11:29.408Z,32.70
2022-10-23T21:13:57.408Z,30.30
2022-10-23T21:16:28.635Z,27.30
2022-10-23T21:18:56.901Z,30.10
2022-10-23T21:21:24.848Z,32.90
2022-10-23T21:23:54.986Z,31.70
2022-10-23T21:26:24.284Z,33.20
2022-10-23T21:28:56.168Z,38.20
2022-10-23T21:31:27.826Z,38.50
2022-10-23T21:33:54.557Z,41.50
2022-10-23T21:36:24.153Z,39.60
2022-10-23T21:38:53.691Z,37.70
2022-10-23T21:41:24.059Z,38.10
2022-10-23T21:43:56.543Z,37.20
2022-10-23T21:46:24.615Z,38.90
2022-10-23T21:48:52.187Z,38.30
2022-10-23T21:51:29.553Z,36.60
2022-10-23T21:53:57.761Z,37.80
2022-10-23T21:56:30.556Z,38.10
2022-10-23T21:58:59.576Z,37.50
2022-10-23T22:01:27.310Z,33.60
2022-10-23T22:03:54.483Z,34.60
2022-10-23T22:06:25.695Z,33.70
2022-10-23T22:08:53.924Z,34.90
2022-10-23T22:11:20.893Z,36.70
2022-10-23T22:13:48.289Z,37.30
2022-10-23T22:16:16.229Z,35.90
2022-10-23T22:18:43.435Z,38.30
2022-10-23T22:21:13.210Z,72.50
2022-10-23T22:23:40.433Z,41.90
2022-10-23T22:26:10.023Z,48.90
2022-10-23T22:28:36.864Z,51.00
2022-10-23T22:31:03.561Z,47.70
2022-10-23T22:33:31.117Z,56.50
2022-10-23T22:36:02.480Z,55.80
2022-10-23T22:38:32.033Z,45.80
2022-10-23T22:41:02.039Z,69.10
2022-10-23T22:43:29.602Z,50.40
2022-10-23T22:46:13.249Z,38.70
2022-10-23T22:48:40.455Z,31.10
2022-10-23T22:51:09.141Z,30.40
2022-10-23T22:53:36.338Z,22.30
2022-10-23T22:56:07.427Z,21.20
2022-10-23T22:58:34.717Z,20.40
2022-10-23T23:01:05.890Z,21.50
2022-10-23T23:03:32.807Z,28.30
2022-10-23T23:05:59.542Z,37.70
2022-10-23T23:08:26.253Z,35.60
2022-10-23T23:10:54.590Z,40.70
2022-10-23T23:13:21.657Z,39.10
2022-10-23T23:15:48.420Z,35.10
2022-10-23T23:18:15.181Z,28.80
2022-10-23T23:20:42.089Z,45.80
2022-10-23T23:23:09.693Z,85.20
2022-10-23T23:25:49.433Z,73.40
2022-10-23T23:28:22.527Z,56.00
2022-10-23T23:30:49.654Z,36.60
2022-10-23T23:33:23.919Z,42.50
2022-10-23T23:35:50.629Z,30.70
2022-10-23T23:38:17.282Z,28.80
2022-10-23T23:40:51.717Z,27.10
2022-10-23T23:43:18.682Z,42.70
2022-10-23T23:45:45.881Z,35.20
2022-10-23T23:48:12.621Z,30.40
2022-10-23T23:50:39.351Z,29.30
2022-10-23T23:53:06.025Z,50.30
2022-10-23T23:55:33.125Z,42.70
2022-10-23T23:57:59.874Z,38.40
